Flight Track Log - Related Links

Times and Time Zones

All times are in EDT time to prevent confusion due to time zone crossing. See the PDT4147 flight status page for this flight to view local times or setup timezone preferences in your user account.

Time Position Orientation Groundspeed Altitude Reporting Facility
EDT Latitude Longitude Course Direction KTS MPH feet Rate Location/Type
Fri 03:01:17 PM 35.1969 -80.9356 71° East 135 155 1,300  Level Atlanta Center
Fri 03:02:00 PM 35.1775 -80.9056 128° Southeast 159 183 2,200 1,038 Climbing Atlanta Center
Fri 03:03:01 PM 35.1719 -80.8450 96° East 190 219 3,100 787 Climbing Atlanta Center
Fri 03:04:00 PM 35.3232 -80.5434 71° East  Level FlightAware Approximate
Fri 03:04:02 PM 35.1681 -80.7789 94° East 200 230 3,800  Level Atlanta Center
Fri 03:05:00 PM 35.3515 -80.4428 71° East  Level FlightAware Approximate
Fri 03:05:09 PM 35.1658 -80.7003 92° East 211 243 4,400  Level Atlanta Center
Fri 03:06:00 PM 35.3797 -80.3422 71° East  Level FlightAware Approximate
Fri 03:06:10 PM 35.1911 -80.6333 65° Northeast 215 247 5,400  Level Atlanta Center
Fri 03:07:06 PM 35.2211 -80.5811 55° Northeast 202 232 6,300 821 Climbing Atlanta Center
Fri 03:08:07 PM 35.2486 -80.5217 60° Northeast 200 230 7,000 689 Climbing Atlanta Center
Fri 03:10:00 PM 35.3338 -80.3509 59° Northeast  Level FlightAware Approximate
Fri 03:17:00 PM 35.8287 -80.0712 North  Level FlightAware Approximate
Fri 03:18:00 PM 35.9153 -80.0646 North  Level FlightAware Approximate
Fri 03:19:00 PM 36.0019 -80.0580 North  Level FlightAware Approximate
Fri 03:20:00 PM 36.0885 -80.0513 North  Level FlightAware Approximate
Fri 03:21:00 PM 36.1751 -80.0446 North  Level FlightAware Approximate
Fri 03:22:00 PM 36.2616 -80.0380 North  Level FlightAware Approximate
Fri 03:23:00 PM 36.3482 -80.0313 North  Level FlightAware Approximate
Fri 03:24:00 PM 36.4348 -80.0246 North  Level FlightAware Approximate
Fri 03:25:00 PM 36.5214 -80.0178 North  Level FlightAware Approximate
Fri 03:26:00 PM 36.6080 -80.0111 North  Level FlightAware Approximate
Fri 03:27:00 PM 36.6945 -80.0043 North  Level FlightAware Approximate
Fri 03:28:00 PM 36.7812 -80.0000 North  Level FlightAware Approximate
Fri 03:29:00 PM 36.8679 -80.0000 North  Level FlightAware Approximate
Fri 03:30:00 PM 36.9539 -79.9931 15° North  Level FlightAware Approximate
Fri 03:31:00 PM 37.0397 -79.9833 North  Level FlightAware Approximate
Fri 03:32:00 PM 37.1264 -79.9833 North  Level FlightAware Approximate
Fri 03:33:00 PM 37.2128 -79.9774 North  Level FlightAware Approximate
Fri 03:34:00 PM 37.2989 -79.9667 North  Level FlightAware Approximate
Fri 03:35:00 PM 37.3167 -79.9667 North  Level FlightAware Approximate
Fri 03:36:00 PM 37.3255 -79.9754 North  Level Estimated
Fri 03:37:00 PM 37.3255 -79.9754 North  Level Estimated
Fri 03:38:00 PM 37.3255 -79.9754 North  Level Estimated
Fri 03:39:00 PM 37.3255 -79.9754 North  Level Estimated
Fri 03:40:00 PM 37.3255 -79.9754 North  Level Estimated
Fri 03:41:00 PM 37.3255 -79.9754 North  Level Estimated
Fri 03:42:00 PM 37.3255 -79.9754 North  Level Estimated

Login

Don't have an account? Register now (free) for customized features, flight alerts, and more!